Time;durP1;ratioP1;P1;durP2;ratioP2;P2;SDS_P1;SDS_P2;PMS_P1;PMS_P2;Temp;Humidity;BMP_temperature;BMP_pressure;BME280_temperature;BME280_humidity;BME280_pressure;Samples;Min_cycle;Max_cycle;Signal;HPM_P1;HPM_P2
2022/06/05 00:01:27;;;;;;;;;15.33;14.67;;;;;;;;4996700;28;52064;-64
2022/06/05 00:04:11;;;;;;;;;18.00;17.33;;;;;;;;4996648;28;52830;-64
2022/06/05 00:06:40;;;;;;;;;15.00;14.00;;;;;;;;4996350;28;52118;-63
2022/06/05 00:09:14;;;;;;;;;17.00;16.33;;;;;;;;4996935;28;51383;-63
2022/06/05 00:11:46;;;;;;;;;16.00;16.00;;;;;;;;4995276;28;51914;-62
2022/06/05 00:14:11;;;;;;;;;18.00;18.00;;;;;;;;4997523;28;51202;-62
2022/06/05 00:16:36;;;;;;;;;21.75;20.50;;;;;;;;4995489;28;51522;-62
2022/06/05 00:19:03;;;;;;;;;17.00;16.00;;;;;;;;4994565;28;51374;-62
2022/06/05 00:21:28;;;;;;;;;16.67;16.67;;;;;;;;4996000;28;52730;-61
2022/06/05 00:23:53;;;;;;;;;11.67;11.67;;;;;;;;4994038;28;52152;-63
2022/06/05 00:26:27;;;;;;;;;14.67;13.33;;;;;;;;4995731;28;51120;-63
2022/06/05 00:29:07;;;;;;;;;14.33;14.33;;;;;;;;4993411;28;51298;-63
2022/06/05 00:31:38;;;;;;;;;21.33;19.67;;;;;;;;4994515;28;51986;-63
2022/06/05 00:34:04;;;;;;;;;30.50;30.25;;;;;;;;4995130;28;51245;-63
2022/06/05 00:36:41;;;;;;;;;18.67;17.33;;;;;;;;4995992;28;51695;-62
2022/06/05 00:39:10;;;;;;;;;33.75;29.75;;;;;;;;4997344;28;51340;-63
2022/06/05 00:41:35;;;;;;;;;19.00;18.33;;;;;;;;4992566;28;52884;-63
2022/06/05 00:44:01;;;;;;;;;17.00;15.00;;;;;;;;4998770;28;51886;-64
2022/06/05 00:46:27;;;;;;;;;22.00;22.00;;;;;;;;5002115;28;51248;-64
2022/06/05 00:48:52;;;;;;;;;17.00;17.00;;;;;;;;4999609;28;51489;-64
2022/06/05 00:51:17;;;;;;;;;17.67;16.00;;;;;;;;5001995;28;52293;-64
2022/06/05 00:53:43;;;;;;;;;19.00;18.00;;;;;;;;4999470;28;51953;-64
2022/06/05 00:56:10;;;;;;;;;14.67;14.67;;;;;;;;5001124;28;51836;-64
2022/06/05 00:58:36;;;;;;;;;21.25;19.75;;;;;;;;5004350;28;51056;-64
2022/06/05 01:01:01;;;;;;;;;19.00;18.00;;;;;;;;5003871;28;52061;-64
2022/06/05 01:03:27;;;;;;;;;16.00;16.00;;;;;;;;5010946;28;51480;-64
2022/06/05 01:05:52;;;;;;;;;11.33;11.33;;;;;;;;5015339;28;50937;-64
2022/06/05 01:08:17;;;;;;;;;16.33;16.00;;;;;;;;5014172;28;51119;-64
2022/06/05 01:10:45;;;;;;;;;15.25;15.00;;;;;;;;5000878;28;53018;-64
2022/06/05 01:13:33;;;;;;;;;19.33;18.67;;;;;;;;5010388;28;51255;-64
2022/06/05 01:16:08;;;;;;;;;15.67;15.67;;;;;;;;4991282;28;51107;-63
2022/06/05 01:18:43;;;;;;;;;19.75;18.50;;;;;;;;5013549;28;50980;-64
2022/06/05 01:21:08;;;;;;;;;17.50;17.00;;;;;;;;5012671;28;52155;-63
2022/06/05 01:23:52;;;;;;;;;17.50;17.00;;;;;;;;5015332;28;51077;-61
2022/06/05 01:26:17;;;;;;;;;16.33;16.00;;;;;;;;5023268;28;51148;-63
2022/06/05 01:28:50;;;;;;;;;18.00;17.00;;;;;;;;5007697;28;50900;-62
2022/06/05 01:31:20;;;;;;;;;17.33;16.33;;;;;;;;5011191;28;52078;-63
2022/06/05 01:33:56;;;;;;;;;17.33;16.67;;;;;;;;5013821;28;51162;-62
2022/06/05 01:36:47;;;;;;;;;43.25;37.50;;;;;;;;5018313;28;51037;-62
2022/06/05 01:39:16;;;;;;;;;20.25;19.75;;;;;;;;5010349;28;51391;-62
2022/06/05 01:41:45;;;;;;;;;17.00;16.25;;;;;;;;5013082;28;51786;-62
2022/06/05 01:44:14;;;;;;;;;22.25;21.50;;;;;;;;5012045;28;50979;-62
2022/06/05 01:46:39;;;;;;;;;19.00;17.75;;;;;;;;5010035;28;50946;-63
2022/06/05 01:49:09;;;;;;;;;21.00;19.50;;;;;;;;5013625;28;51408;-62
2022/06/05 01:51:55;;;;;;;;;19.50;18.75;;;;;;;;5019136;28;51888;-62
2022/06/05 01:54:23;;;;;;;;;20.25;19.75;;;;;;;;5006867;28;51757;-63
2022/06/05 01:56:51;;;;;;;;;17.00;17.00;;;;;;;;5011775;28;51177;-62
2022/06/05 01:59:32;;;;;;;;;21.75;20.75;;;;;;;;5011535;28;51054;-63
2022/06/05 02:01:58;;;;;;;;;20.33;17.00;;;;;;;;5023229;28;52187;-63
2022/06/05 02:04:29;;;;;;;;;19.00;18.33;;;;;;;;5017801;28;51001;-62
2022/06/05 02:06:58;;;;;;;;;18.00;16.75;;;;;;;;5011472;28;51143;-62
2022/06/05 02:09:28;;;;;;;;;18.25;17.75;;;;;;;;5007262;28;50970;-62
2022/06/05 02:11:54;;;;;;;;;21.00;19.33;;;;;;;;5007893;28;51286;-62
2022/06/05 02:14:19;;;;;;;;;19.50;19.25;;;;;;;;5025255;28;51027;-62
2022/06/05 02:16:44;;;;;;;;;23.00;22.00;;;;;;;;5011700;28;51262;-62
2022/06/05 02:19:15;;;;;;;;;26.75;25.75;;;;;;;;5011254;28;51101;-63
2022/06/05 02:21:41;;;;;;;;;29.25;27.25;;;;;;;;5011784;28;51915;-63
2022/06/05 02:24:09;;;;;;;;;24.25;24.25;;;;;;;;5013102;28;51182;-63
2022/06/05 02:26:34;;;;;;;;;24.50;23.50;;;;;;;;5013280;28;51129;-63
2022/06/05 02:29:07;;;;;;;;;25.75;24.00;;;;;;;;5016030;28;51189;-63
2022/06/05 02:31:51;;;;;;;;;30.25;30.00;;;;;;;;5012168;28;51146;-63
2022/06/05 02:34:16;;;;;;;;;21.00;19.75;;;;;;;;5009466;28;51206;-63
2022/06/05 02:36:41;;;;;;;;;27.00;26.00;;;;;;;;5010345;28;51313;-63
2022/06/05 02:39:14;;;;;;;;;27.50;25.25;;;;;;;;5012513;28;51033;-63
2022/06/05 02:42:02;;;;;;;;;22.75;22.75;;;;;;;;5009186;28;51140;-63
2022/06/05 02:44:34;;;;;;;;;2.25;2.00;;;;;;;;5006046;28;51135;-63
2022/06/05 02:47:12;;;;;;;;;23.25;22.25;;;;;;;;5009032;28;51115;-62
2022/06/05 02:49:42;;;;;;;;;24.25;23.25;;;;;;;;4994525;28;51012;-62
2022/06/05 02:52:08;;;;;;;;;20.00;20.00;;;;;;;;5011641;28;51320;-63
2022/06/05 02:54:38;;;;;;;;;21.50;20.50;;;;;;;;5011727;28;51151;-63
2022/06/05 02:57:03;;;;;;;;;26.00;24.50;;;;;;;;5010493;28;51188;-64
2022/06/05 02:59:29;;;;;;;;;15.33;15.00;;;;;;;;5008649;28;51616;-62
2022/06/05 03:04:38;;;;;;;;;19.00;18.75;;;;;;;;5013306;28;51120;-63
2022/06/05 03:07:04;;;;;;;;;18.00;17.50;;;;;;;;5011987;28;50961;-61
2022/06/05 03:09:29;;;;;;;;;19.00;19.00;;;;;;;;5008575;28;51068;-63
2022/06/05 03:11:54;;;;;;;;;14.67;14.67;;;;;;;;5011535;28;52112;-63
2022/06/05 03:14:19;;;;;;;;;20.25;18.75;;;;;;;;5013117;28;51219;-64
2022/06/05 03:16:44;;;;;;;;;13.25;12.25;;;;;;;;5010914;28;51328;-63
2022/06/05 03:19:10;;;;;;;;;19.25;18.00;;;;;;;;5009699;28;51053;-66
2022/06/05 03:21:37;;;;;;;;;17.75;16.00;;;;;;;;5007464;28;51254;-64
2022/06/05 03:24:02;;;;;;;;;16.67;16.00;;;;;;;;5007655;28;51060;-64
2022/06/05 03:26:27;;;;;;;;;18.25;18.25;;;;;;;;5003236;28;51136;-63
2022/06/05 03:28:53;;;;;;;;;19.33;16.00;;;;;;;;5011783;28;52507;-63
2022/06/05 03:31:18;;;;;;;;;16.00;15.67;;;;;;;;5011878;28;51209;-64
2022/06/05 03:33:43;;;;;;;;;18.33;17.33;;;;;;;;5010687;28;50925;-64
2022/06/05 03:36:10;;;;;;;;;16.33;16.33;;;;;;;;5012203;28;51042;-63
2022/06/05 03:38:35;;;;;;;;;16.00;16.00;;;;;;;;5007949;28;51176;-63
2022/06/05 03:41:01;;;;;;;;;19.00;18.00;;;;;;;;5012061;28;51713;-63
2022/06/05 03:43:26;;;;;;;;;15.00;14.67;;;;;;;;5010451;28;51000;-62
2022/06/05 03:45:58;;;;;;;;;21.25;19.00;;;;;;;;5012595;28;51042;-63
2022/06/05 03:48:24;;;;;;;;;16.00;16.00;;;;;;;;5012360;28;51110;-63
2022/06/05 03:50:49;;;;;;;;;24.75;21.25;;;;;;;;5012472;28;51230;-61
2022/06/05 03:53:14;;;;;;;;;23.00;21.00;;;;;;;;5010839;28;51033;-63
2022/06/05 03:55:40;;;;;;;;;23.50;22.00;;;;;;;;5012098;28;50827;-63
2022/06/05 03:58:05;;;;;;;;;18.00;17.00;;;;;;;;5011935;28;51297;-63
2022/06/05 04:00:30;;;;;;;;;20.75;20.00;;;;;;;;5009711;28;51387;-64
2022/06/05 04:02:56;;;;;;;;;18.25;18.25;;;;;;;;5017136;28;51115;-63
2022/06/05 04:05:21;;;;;;;;;15.75;13.75;;;;;;;;5012501;28;51044;-63
2022/06/05 04:07:46;;;;;;;;;16.00;16.00;;;;;;;;5011621;28;51297;-64
2022/06/05 04:10:13;;;;;;;;;16.67;16.00;;;;;;;;5010715;28;53312;-64
2022/06/05 04:12:38;;;;;;;;;19.75;18.50;;;;;;;;5011241;28;51016;-64
2022/06/05 04:15:04;;;;;;;;;18.50;18.00;;;;;;;;5011752;28;51208;-63
2022/06/05 04:17:29;;;;;;;;;17.67;17.33;;;;;;;;5003058;28;51521;-63
2022/06/05 04:19:54;;;;;;;;;16.67;15.67;;;;;;;;5014333;28;52958;-63
2022/06/05 04:22:20;;;;;;;;;14.67;14.33;;;;;;;;5013286;28;50968;-63
2022/06/05 04:24:45;;;;;;;;;14.00;12.33;;;;;;;;5010375;28;51104;-64
2022/06/05 04:27:11;;;;;;;;;13.67;13.67;;;;;;;;5015763;28;50984;-63
2022/06/05 04:29:36;;;;;;;;;14.67;14.00;;;;;;;;5014768;28;51827;-64
2022/06/05 04:32:01;;;;;;;;;13.67;13.67;;;;;;;;5014507;28;51012;-64
2022/06/05 04:34:27;;;;;;;;;16.00;16.00;;;;;;;;5011828;28;51303;-62
2022/06/05 04:36:52;;;;;;;;;13.33;12.67;;;;;;;;5015825;28;50994;-62
2022/06/05 04:39:17;;;;;;;;;17.00;15.33;;;;;;;;5014518;28;51150;-62
2022/06/05 04:41:43;;;;;;;;;14.33;13.67;;;;;;;;5015059;28;51033;-62
2022/06/05 04:44:10;;;;;;;;;15.00;15.00;;;;;;;;5014380;28;51065;-63
2022/06/05 04:46:36;;;;;;;;;14.67;14.67;;;;;;;;5016439;28;50957;-63
2022/06/05 04:49:01;;;;;;;;;16.67;16.67;;;;;;;;5014046;28;51957;-63
2022/06/05 04:51:26;;;;;;;;;23.75;23.50;;;;;;;;5019817;28;51111;-62
2022/06/05 04:53:52;;;;;;;;;14.00;14.00;;;;;;;;5012687;28;51098;-63
2022/06/05 04:56:19;;;;;;;;;13.67;12.67;;;;;;;;5014900;28;51251;-63
2022/06/05 04:58:47;;;;;;;;;13.33;13.33;;;;;;;;5012287;28;51199;-63
2022/06/05 05:01:14;;;;;;;;;13.33;13.33;;;;;;;;5020395;28;50976;-63
2022/06/05 05:03:40;;;;;;;;;12.00;12.00;;;;;;;;5014867;28;50835;-63
2022/06/05 05:06:05;;;;;;;;;13.00;12.67;;;;;;;;5014779;28;51109;-64
2022/06/05 05:08:31;;;;;;;;;13.67;12.00;;;;;;;;5008339;28;51138;-64
2022/06/05 05:10:57;;;;;;;;;13.33;12.67;;;;;;;;5015053;28;51158;-63
2022/06/05 05:13:22;;;;;;;;;12.67;10.67;;;;;;;;5012333;28;51029;-63
2022/06/05 05:15:48;;;;;;;;;14.33;12.00;;;;;;;;5015137;28;51025;-62
2022/06/05 05:18:13;;;;;;;;;14.33;12.67;;;;;;;;5012913;28;51159;-62
2022/06/05 05:20:38;;;;;;;;;13.33;13.33;;;;;;;;5012866;28;51024;-63
2022/06/05 05:23:03;;;;;;;;;15.67;15.33;;;;;;;;5012304;28;51119;-62
2022/06/05 05:25:29;;;;;;;;;9.67;9.67;;;;;;;;5012181;28;51140;-63
2022/06/05 05:27:54;;;;;;;;;14.00;14.00;;;;;;;;5013484;28;51783;-62
2022/06/05 05:30:19;;;;;;;;;13.67;13.33;;;;;;;;5014384;28;51025;-63
2022/06/05 05:32:44;;;;;;;;;14.67;14.33;;;;;;;;5012802;28;51150;-62
2022/06/05 05:35:10;;;;;;;;;12.33;11.67;;;;;;;;5014869;28;51171;-62
2022/06/05 05:37:35;;;;;;;;;14.67;14.67;;;;;;;;5013886;28;51863;-62
2022/06/05 05:42:44;;;;;;;;;16.33;14.00;;;;;;;;5011508;28;51764;-63
2022/06/05 05:45:10;;;;;;;;;16.67;15.00;;;;;;;;5014540;28;50966;-63
2022/06/05 05:47:35;;;;;;;;;14.25;14.00;;;;;;;;5014221;28;51077;-63
2022/06/05 05:50:05;;;;;;;;;16.33;15.33;;;;;;;;5013922;28;51495;-63
2022/06/05 05:52:30;;;;;;;;;15.33;13.00;;;;;;;;5017770;28;51059;-62
2022/06/05 05:54:55;;;;;;;;;13.00;13.00;;;;;;;;5007237;28;51372;-63
2022/06/05 05:57:21;;;;;;;;;14.00;13.33;;;;;;;;5013964;28;50992;-62
2022/06/05 05:59:47;;;;;;;;;13.00;13.00;;;;;;;;5012261;28;51241;-63
2022/06/05 06:02:21;;;;;;;;;13.00;13.00;;;;;;;;5015241;28;51012;-62
2022/06/05 06:04:47;;;;;;;;;13.67;13.33;;;;;;;;5014521;28;51016;-63
2022/06/05 06:07:12;;;;;;;;;14.33;13.33;;;;;;;;5013785;28;51092;-63
2022/06/05 06:09:38;;;;;;;;;10.33;10.00;;;;;;;;5012297;28;51164;-63
2022/06/05 06:12:03;;;;;;;;;11.00;11.00;;;;;;;;5011458;28;51097;-63
2022/06/05 06:14:28;;;;;;;;;18.00;15.33;;;;;;;;5014352;28;51075;-64
2022/06/05 06:16:54;;;;;;;;;14.00;14.00;;;;;;;;5012571;28;51787;-64
2022/06/05 06:19:19;;;;;;;;;14.33;13.33;;;;;;;;5013138;28;51199;-63
2022/06/05 06:21:44;;;;;;;;;12.33;12.00;;;;;;;;5012975;28;51139;-62
2022/06/05 06:24:10;;;;;;;;;14.00;13.33;;;;;;;;5012486;28;51225;-63
2022/06/05 06:26:36;;;;;;;;;13.67;13.67;;;;;;;;5012583;28;51828;-63
2022/06/05 06:29:01;;;;;;;;;13.00;12.00;;;;;;;;5008787;28;50896;-63
2022/06/05 06:31:26;;;;;;;;;14.00;13.33;;;;;;;;5012203;28;51077;-63
2022/06/05 06:33:51;;;;;;;;;14.33;14.00;;;;;;;;5012311;28;51450;-63
2022/06/05 06:36:18;;;;;;;;;14.67;13.00;;;;;;;;5012906;28;51883;-63
2022/06/05 06:38:43;;;;;;;;;10.33;10.33;;;;;;;;5012837;28;50898;-63
2022/06/05 06:41:10;;;;;;;;;12.00;11.33;;;;;;;;5012356;28;50947;-62
2022/06/05 06:43:36;;;;;;;;;13.00;12.33;;;;;;;;5011834;28;51441;-63
2022/06/05 06:46:02;;;;;;;;;14.67;14.00;;;;;;;;5012887;28;51875;-63
2022/06/05 06:48:27;;;;;;;;;12.00;12.00;;;;;;;;4994284;28;51063;-63
2022/06/05 06:50:53;;;;;;;;;15.00;14.33;;;;;;;;5012068;28;51095;-64
2022/06/05 06:53:19;;;;;;;;;15.67;14.67;;;;;;;;5014494;28;51163;-63
2022/06/05 06:55:44;;;;;;;;;13.00;13.00;;;;;;;;5012968;28;51746;-63
2022/06/05 06:58:09;;;;;;;;;16.00;15.00;;;;;;;;5012565;28;51048;-63
2022/06/05 07:00:35;;;;;;;;;13.33;12.33;;;;;;;;5013020;28;50957;-63
2022/06/05 07:03:00;;;;;;;;;15.00;14.67;;;;;;;;5015390;28;51167;-63
2022/06/05 07:05:25;;;;;;;;;13.33;13.33;;;;;;;;5012178;28;51035;-63
2022/06/05 07:07:51;;;;;;;;;13.00;13.00;;;;;;;;5012058;28;51219;-64
2022/06/05 07:10:16;;;;;;;;;13.00;13.00;;;;;;;;5012062;28;50986;-63
2022/06/05 07:12:41;;;;;;;;;11.33;11.33;;;;;;;;5011473;28;51145;-65
2022/06/05 07:15:07;;;;;;;;;16.00;15.00;;;;;;;;5012242;28;51894;-62
2022/06/05 07:17:32;;;;;;;;;14.00;14.00;;;;;;;;5007561;28;51199;-62
2022/06/05 07:19:57;;;;;;;;;10.67;10.00;;;;;;;;5001182;28;51127;-62
2022/06/05 07:22:23;;;;;;;;;9.67;9.33;;;;;;;;5010502;28;53915;-63
2022/06/05 07:24:48;;;;;;;;;7.00;7.00;;;;;;;;5012160;28;52079;-62
2022/06/05 07:27:13;;;;;;;;;7.00;7.00;;;;;;;;5012642;28;50938;-62
2022/06/05 07:29:38;;;;;;;;;8.00;7.33;;;;;;;;5012224;28;50894;-62
2022/06/05 07:32:04;;;;;;;;;7.00;6.00;;;;;;;;5011295;28;50998;-62
2022/06/05 07:34:29;;;;;;;;;7.33;7.33;;;;;;;;5006280;28;51791;-63
2022/06/05 07:36:54;;;;;;;;;7.00;7.00;;;;;;;;5009840;28;50937;-63
2022/06/05 07:39:19;;;;;;;;;7.00;6.67;;;;;;;;5005630;28;50930;-63
2022/06/05 07:41:45;;;;;;;;;6.33;6.33;;;;;;;;5013652;28;50896;-63
2022/06/05 07:44:10;;;;;;;;;5.33;5.33;;;;;;;;5011788;28;51817;-63
2022/06/05 07:46:36;;;;;;;;;6.67;6.67;;;;;;;;5010869;28;51160;-63
2022/06/05 07:49:02;;;;;;;;;6.00;6.00;;;;;;;;5011310;28;51036;-62
2022/06/05 07:54:27;;;;;;;;;6.00;6.00;;;;;;;;5002159;28;51079;-62
2022/06/05 07:56:52;;;;;;;;;8.00;8.00;;;;;;;;5012977;28;51255;-63
2022/06/05 07:59:18;;;;;;;;;7.67;7.00;;;;;;;;5015866;28;51109;-63
2022/06/05 08:01:43;;;;;;;;;6.67;6.67;;;;;;;;5013798;28;51171;-62
2022/06/05 08:04:08;;;;;;;;;6.33;6.33;;;;;;;;5010627;28;51544;-62
2022/06/05 08:06:34;;;;;;;;;7.00;6.67;;;;;;;;5006171;28;51103;-63
2022/06/05 08:09:03;;;;;;;;;6.33;6.00;;;;;;;;5014903;28;51060;-62
2022/06/05 08:11:28;;;;;;;;;7.33;6.67;;;;;;;;5010165;28;51099;-63
2022/06/05 08:13:53;;;;;;;;;6.33;6.33;;;;;;;;5013069;28;51167;-64
2022/06/05 08:16:19;;;;;;;;;4.33;4.33;;;;;;;;5012759;28;52565;-63
2022/06/05 08:18:44;;;;;;;;;6.33;6.33;;;;;;;;5000757;28;51615;-63
2022/06/05 08:21:09;;;;;;;;;6.67;6.67;;;;;;;;5014909;28;51165;-63
2022/06/05 08:23:35;;;;;;;;;8.00;8.00;;;;;;;;5012756;28;52211;-62
2022/06/05 08:26:01;;;;;;;;;6.33;6.00;;;;;;;;5006957;28;51183;-63
2022/06/05 08:28:27;;;;;;;;;8.00;7.67;;;;;;;;5013320;28;51212;-62
2022/06/05 08:30:52;;;;;;;;;7.00;6.00;;;;;;;;5009430;28;51231;-62
2022/06/05 08:33:18;;;;;;;;;8.00;7.00;;;;;;;;5012569;28;52222;-63
2022/06/05 08:35:45;;;;;;;;;7.33;7.00;;;;;;;;5013897;28;51124;-63
2022/06/05 08:41:28;;;;;;;;;7.00;7.00;;;;;;;;5009525;28;50994;-63
2022/06/05 08:44:02;;;;;;;;;9.00;8.00;;;;;;;;5012818;28;51698;-64
2022/06/05 08:46:40;;;;;;;;;8.00;7.00;;;;;;;;5009895;28;53256;-63
2022/06/05 08:49:14;;;;;;;;;7.67;7.67;;;;;;;;5005175;28;51311;-64
2022/06/05 08:51:46;;;;;;;;;9.00;9.00;;;;;;;;5010072;28;51156;-63
2022/06/05 08:54:11;;;;;;;;;9.67;9.67;;;;;;;;5017968;28;51837;-63
2022/06/05 08:56:36;;;;;;;;;7.67;7.67;;;;;;;;5010298;28;51254;-63
2022/06/05 08:59:31;;;;;;;;;7.33;7.00;;;;;;;;5010828;28;51039;-63
2022/06/05 09:01:57;;;;;;;;;8.00;8.00;;;;;;;;4999029;28;51381;-63
2022/06/05 09:04:22;;;;;;;;;6.33;6.33;;;;;;;;5013781;28;51064;-63
2022/06/05 09:06:58;;;;;;;;;8.00;8.00;;;;;;;;5012903;28;51487;-63
2022/06/05 09:09:28;;;;;;;;;7.67;7.00;;;;;;;;5013428;28;51747;-64
2022/06/05 09:12:02;;;;;;;;;8.67;8.00;;;;;;;;5014305;28;51328;-63
2022/06/05 09:14:48;;;;;;;;;6.00;6.00;;;;;;;;5008818;28;53302;-63
2022/06/05 09:17:15;;;;;;;;;7.00;7.00;;;;;;;;5002467;28;50959;-64
2022/06/05 09:19:41;;;;;;;;;7.33;7.00;;;;;;;;5013892;28;51158;-65
2022/06/05 09:22:18;;;;;;;;;7.67;7.00;;;;;;;;5012448;28;51096;-63
2022/06/05 09:24:46;;;;;;;;;8.00;7.33;;;;;;;;5009974;28;52410;-62
2022/06/05 09:27:32;;;;;;;;;7.67;7.67;;;;;;;;5002902;28;51184;-63
2022/06/05 09:30:00;;;;;;;;;9.00;9.00;;;;;;;;4986247;28;51651;-62
2022/06/05 09:32:37;;;;;;;;;10.00;9.00;;;;;;;;5012506;28;51522;-63
2022/06/05 09:35:11;;;;;;;;;10.67;10.00;;;;;;;;5011973;28;51956;-63
2022/06/05 09:37:50;;;;;;;;;8.33;8.33;;;;;;;;5013035;28;51272;-62
2022/06/05 09:40:34;;;;;;;;;8.67;8.33;;;;;;;;5012683;28;51139;-62
2022/06/05 09:43:15;;;;;;;;;9.33;9.33;;;;;;;;5004809;28;51100;-63
2022/06/05 09:46:02;;;;;;;;;10.00;9.00;;;;;;;;5010103;28;51830;-62
2022/06/05 09:48:31;;;;;;;;;8.00;8.00;;;;;;;;5004984;28;51112;-62
2022/06/05 09:50:56;;;;;;;;;11.00;11.00;;;;;;;;5012032;28;51044;-62
2022/06/05 09:53:26;;;;;;;;;11.67;10.33;;;;;;;;5022376;28;50972;-61
2022/06/05 09:55:58;;;;;;;;;12.00;12.00;;;;;;;;5012759;28;51969;-61
2022/06/05 09:58:27;;;;;;;;;15.67;14.00;;;;;;;;5012078;28;51127;-63
2022/06/05 10:00:56;;;;;;;;;14.67;14.67;;;;;;;;5009146;28;51205;-62
2022/06/05 10:03:35;;;;;;;;;11.00;10.33;;;;;;;;5009672;28;50891;-62
2022/06/05 10:06:14;;;;;;;;;16.33;15.00;;;;;;;;5013398;28;52939;-61
2022/06/05 10:08:45;;;;;;;;;15.33;15.00;;;;;;;;5012171;28;51045;-61
2022/06/05 10:11:28;;;;;;;;;11.33;9.00;;;;;;;;5005220;28;51262;-62
2022/06/05 10:14:02;;;;;;;;;12.33;12.33;;;;;;;;5013409;28;51078;-62
2022/06/05 10:16:28;;;;;;;;;12.00;11.33;;;;;;;;5010909;28;51067;-62
2022/06/05 10:19:03;;;;;;;;;12.33;12.33;;;;;;;;5011242;28;51210;-62
2022/06/05 10:21:33;;;;;;;;;12.00;12.00;;;;;;;;5016267;28;51342;-63
2022/06/05 10:24:08;;;;;;;;;13.00;13.00;;;;;;;;5019597;28;51437;-62
2022/06/05 10:26:36;;;;;;;;;11.67;11.67;;;;;;;;5012754;28;51063;-61
2022/06/05 10:29:20;;;;;;;;;12.67;12.33;;;;;;;;5013176;28;50945;-64
2022/06/05 10:32:01;;;;;;;;;15.00;15.00;;;;;;;;5008719;28;51284;-62
2022/06/05 10:34:32;;;;;;;;;15.00;15.00;;;;;;;;5000901;28;51099;-60
2022/06/05 10:37:03;;;;;;;;;15.67;15.00;;;;;;;;5006514;28;51827;-61
2022/06/05 10:39:36;;;;;;;;;18.00;16.00;;;;;;;;5012900;28;51206;-62
2022/06/05 10:42:20;;;;;;;;;17.00;16.00;;;;;;;;5013237;28;51160;-60
2022/06/05 10:44:52;;;;;;;;;14.67;14.00;;;;;;;;5010429;28;51182;-62
2022/06/05 10:47:27;;;;;;;;;13.33;13.00;;;;;;;;5009848;28;51141;-62
2022/06/05 10:50:04;;;;;;;;;15.33;15.00;;;;;;;;5009866;28;51150;-62
2022/06/05 10:52:36;;;;;;;;;15.00;14.67;;;;;;;;5015774;28;50982;-60
2022/06/05 10:55:20;;;;;;;;;16.33;16.33;;;;;;;;5012276;28;51379;-61
2022/06/05 10:57:48;;;;;;;;;15.33;15.00;;;;;;;;5011513;28;51344;-62
2022/06/05 11:00:18;;;;;;;;;16.00;16.00;;;;;;;;4985977;28;53191;-62
2022/06/05 11:02:43;;;;;;;;;18.00;17.33;;;;;;;;5004717;28;51122;-61
2022/06/05 11:05:26;;;;;;;;;18.67;18.67;;;;;;;;5007486;28;51116;-62
2022/06/05 11:07:59;;;;;;;;;15.67;15.67;;;;;;;;5002434;28;51171;-61
2022/06/05 11:13:39;;;;;;;;;17.00;16.00;;;;;;;;5003438;28;50951;-61
2022/06/05 11:16:09;;;;;;;;;19.00;17.67;;;;;;;;5002300;28;51204;-62
2022/06/05 11:18:54;;;;;;;;;19.75;19.00;;;;;;;;5002716;28;51874;-62
2022/06/05 11:21:21;;;;;;;;;20.00;19.33;;;;;;;;4999532;28;51298;-62
2022/06/05 11:23:48;;;;;;;;;19.33;18.33;;;;;;;;5001850;28;51179;-64
2022/06/05 11:26:26;;;;;;;;;19.67;18.00;;;;;;;;5002916;28;51392;-61
2022/06/05 11:28:51;;;;;;;;;19.67;17.67;;;;;;;;5003154;28;52553;-62
2022/06/05 11:31:32;;;;;;;;;20.00;20.00;;;;;;;;4998017;28;51724;-62
2022/06/05 11:33:57;;;;;;;;;20.00;19.00;;;;;;;;5001857;28;51231;-61
2022/06/05 11:36:33;;;;;;;;;18.33;18.33;;;;;;;;5005102;28;51729;-62
2022/06/05 11:39:07;;;;;;;;;17.00;15.00;;;;;;;;5006059;28;51097;-62
2022/06/05 11:41:40;;;;;;;;;19.00;19.00;;;;;;;;5004983;28;51152;-61
2022/06/05 11:44:21;;;;;;;;;23.33;21.33;;;;;;;;5002643;28;51299;-61
2022/06/05 11:46:51;;;;;;;;;18.00;18.00;;;;;;;;5001650;28;51296;-61
2022/06/05 11:49:20;;;;;;;;;19.33;19.00;;;;;;;;5004232;28;52218;-61
2022/06/05 11:51:49;;;;;;;;;24.25;24.25;;;;;;;;5015897;28;51147;-60
2022/06/05 11:54:20;;;;;;;;;18.00;18.00;;;;;;;;5009385;28;51010;-61
2022/06/05 11:57:04;;;;;;;;;19.33;19.00;;;;;;;;5003644;28;51390;-61
2022/06/05 11:59:35;;;;;;;;;23.25;22.50;;;;;;;;5002348;28;52565;-61
2022/06/05 12:02:22;;;;;;;;;24.00;20.33;;;;;;;;5001123;28;51091;-61
2022/06/05 12:05:11;;;;;;;;;23.33;22.00;;;;;;;;4981702;28;51225;-62
2022/06/05 12:07:36;;;;;;;;;25.33;25.33;;;;;;;;5005718;28;52918;-62
2022/06/05 12:10:07;;;;;;;;;21.00;19.67;;;;;;;;4999924;28;52726;-61
2022/06/05 12:12:47;;;;;;;;;21.67;19.00;;;;;;;;5004737;28;51232;-61
2022/06/05 12:15:18;;;;;;;;;27.75;26.50;;;;;;;;4998593;28;51607;-62
2022/06/05 12:17:52;;;;;;;;;22.50;22.25;;;;;;;;4999178;28;51686;-62
2022/06/05 12:20:28;;;;;;;;;21.00;20.00;;;;;;;;4999829;28;51277;-63
2022/06/05 12:22:54;;;;;;;;;14.33;14.00;;;;;;;;4998681;28;51306;-63
2022/06/05 12:25:34;;;;;;;;;18.00;17.00;;;;;;;;4997273;28;51279;-63
2022/06/05 12:28:09;;;;;;;;;17.33;16.67;;;;;;;;5000523;28;52332;-63
2022/06/05 12:30:42;;;;;;;;;17.00;16.67;;;;;;;;5002843;28;52154;-63
2022/06/05 12:33:14;;;;;;;;;14.00;13.00;;;;;;;;5000917;28;51218;-63
2022/06/05 12:35:44;;;;;;;;;15.67;15.67;;;;;;;;5000330;28;51887;-63
2022/06/05 12:38:20;;;;;;;;;19.00;17.00;;;;;;;;5005139;28;51131;-63
2022/06/05 12:40:55;;;;;;;;;17.00;16.00;;;;;;;;5001300;28;51875;-63
2022/06/05 12:43:26;;;;;;;;;20.00;19.00;;;;;;;;5010892;28;51148;-62
2022/06/05 12:45:55;;;;;;;;;26.75;24.25;;;;;;;;5012883;28;51077;-63
2022/06/05 12:48:26;;;;;;;;;22.00;21.00;;;;;;;;5009070;28;51322;-64
2022/06/05 12:50:58;;;;;;;;;19.67;19.33;;;;;;;;5003540;28;52935;-65
2022/06/05 12:53:41;;;;;;;;;16.67;16.33;;;;;;;;5005438;28;51218;-66
2022/06/05 12:56:25;;;;;;;;;18.67;18.67;;;;;;;;5007018;28;51576;-67
2022/06/05 12:58:59;;;;;;;;;20.00;18.33;;;;;;;;5012875;28;51308;-64
2022/06/05 13:01:45;;;;;;;;;18.33;17.33;;;;;;;;5013758;28;51066;-65
2022/06/05 13:04:20;;;;;;;;;17.00;17.00;;;;;;;;4976852;28;51371;-63
2022/06/05 13:06:52;;;;;;;;;17.00;16.33;;;;;;;;4999679;28;51566;-64
2022/06/05 13:09:37;;;;;;;;;13.67;12.33;;;;;;;;5022701;28;51264;-64
2022/06/05 13:12:19;;;;;;;;;17.33;17.00;;;;;;;;5011765;28;51669;-63
2022/06/05 13:14:51;;;;;;;;;20.00;19.67;;;;;;;;5010650;28;51184;-62
2022/06/05 13:17:19;;;;;;;;;18.67;17.33;;;;;;;;5011831;28;51146;-63
2022/06/05 13:20:23;;;;;;;;;14.00;14.00;;;;;;;;5011507;28;51296;-65
2022/06/05 13:22:49;;;;;;;;;14.67;14.00;;;;;;;;5017885;28;52104;-63
2022/06/05 13:25:20;;;;;;;;;16.67;16.67;;;;;;;;5024530;28;51128;-63
2022/06/05 13:28:04;;;;;;;;;14.67;14.00;;;;;;;;5024906;28;51303;-62
2022/06/05 13:30:31;;;;;;;;;47.25;39.75;;;;;;;;5020434;28;51229;-63
2022/06/05 13:33:17;;;;;;;;;13.33;13.33;;;;;;;;5010853;28;51148;-63
2022/06/05 13:35:42;;;;;;;;;17.67;16.00;;;;;;;;5007701;28;51143;-63
2022/06/05 13:38:19;;;;;;;;;14.00;14.00;;;;;;;;5012112;28;51120;-63
2022/06/05 13:40:51;;;;;;;;;15.33;15.33;;;;;;;;5008929;28;51272;-64
2022/06/05 13:43:21;;;;;;;;;15.33;15.00;;;;;;;;5008058;28;52042;-63
2022/06/05 13:45:51;;;;;;;;;9.33;8.33;;;;;;;;5012712;28;51008;-64
2022/06/05 13:48:27;;;;;;;;;11.67;11.00;;;;;;;;5015795;28;51006;-62
2022/06/05 13:51:08;;;;;;;;;12.00;12.00;;;;;;;;5007747;28;51334;-63
2022/06/05 13:53:43;;;;;;;;;14.33;14.00;;;;;;;;5010092;28;51799;-64
2022/06/05 13:56:17;;;;;;;;;12.00;11.33;;;;;;;;5002700;28;52096;-63
2022/06/05 13:58:47;;;;;;;;;12.67;12.33;;;;;;;;5010619;28;51156;-63
2022/06/05 14:01:24;;;;;;;;;13.00;12.33;;;;;;;;5007997;28;51155;-63
2022/06/05 14:03:51;;;;;;;;;12.67;12.67;;;;;;;;5004904;28;51792;-63
2022/06/05 14:06:32;;;;;;;;;16.33;15.67;;;;;;;;5008631;28;51226;-63
2022/06/05 14:09:02;;;;;;;;;13.00;12.33;;;;;;;;5001528;28;51191;-62
2022/06/05 14:11:30;;;;;;;;;17.33;15.33;;;;;;;;5009513;28;51262;-63
2022/06/05 14:13:56;;;;;;;;;14.33;12.67;;;;;;;;5007319;28;51786;-64
2022/06/05 14:16:29;;;;;;;;;15.33;14.33;;;;;;;;5020232;28;51374;-64
2022/06/05 14:18:56;;;;;;;;;14.00;14.00;;;;;;;;5003859;28;51086;-64
2022/06/05 14:21:27;;;;;;;;;16.67;15.00;;;;;;;;5001109;28;51230;-63
2022/06/05 14:23:54;;;;;;;;;15.67;15.00;;;;;;;;4996655;28;51669;-64
2022/06/05 14:26:33;;;;;;;;;13.33;13.33;;;;;;;;5006589;28;51230;-62
2022/06/05 14:28:59;;;;;;;;;14.00;14.00;;;;;;;;5002713;28;51499;-63
2022/06/05 14:31:25;;;;;;;;;12.00;12.00;;;;;;;;5011801;28;51036;-64
2022/06/05 14:33:55;;;;;;;;;12.50;12.50;;;;;;;;5002396;28;51941;-63
2022/06/05 14:36:39;;;;;;;;;10.67;10.00;;;;;;;;5009268;28;50968;-62
2022/06/05 14:39:25;;;;;;;;;15.00;14.33;;;;;;;;5010028;28;51068;-63
2022/06/05 14:41:57;;;;;;;;;15.33;15.33;;;;;;;;5006528;28;51238;-63
2022/06/05 14:44:27;;;;;;;;;20.00;20.00;;;;;;;;5008681;28;52042;-63
2022/06/05 14:46:57;;;;;;;;;11.00;11.00;;;;;;;;5012750;28;51123;-63
2022/06/05 14:49:34;;;;;;;;;12.67;11.67;;;;;;;;5004525;28;51298;-63
2022/06/05 14:52:18;;;;;;;;;12.33;12.33;;;;;;;;5013420;28;51178;-64